sensor_id;sensor_type;location;lat;lon;timestamp;P1;durP1;ratioP1;P2;durP2;ratioP2
21354;SDS011;10835;50.148;19.760;2022-10-22T00:01:05;22.27;;;13.20;;
21354;SDS011;10835;50.148;19.760;2022-10-22T00:03:34;27.70;;;16.25;;
21354;SDS011;10835;50.148;19.760;2022-10-22T00:06:02;26.55;;;14.43;;
21354;SDS011;10835;50.148;19.760;2022-10-22T00:08:30;27.63;;;14.80;;
21354;SDS011;10835;50.148;19.760;2022-10-22T00:10:58;22.80;;;13.45;;
21354;SDS011;10835;50.148;19.760;2022-10-22T00:13:35;27.13;;;14.05;;
21354;SDS011;10835;50.148;19.760;2022-10-22T00:16:03;21.60;;;11.95;;
21354;SDS011;10835;50.148;19.760;2022-10-22T00:18:31;21.92;;;13.23;;
21354;SDS011;10835;50.148;19.760;2022-10-22T00:20:59;23.10;;;13.77;;
21354;SDS011;10835;50.148;19.760;2022-10-22T00:23:27;25.10;;;14.05;;
21354;SDS011;10835;50.148;19.760;2022-10-22T00:25:55;25.05;;;14.68;;
21354;SDS011;10835;50.148;19.760;2022-10-22T00:28:23;30.92;;;15.05;;
21354;SDS011;10835;50.148;19.760;2022-10-22T00:30:55;25.65;;;14.85;;
21354;SDS011;10835;50.148;19.760;2022-10-22T00:33:24;26.65;;;15.88;;
21354;SDS011;10835;50.148;19.760;2022-10-22T00:35:53;23.40;;;15.27;;
21354;SDS011;10835;50.148;19.760;2022-10-22T00:38:21;27.55;;;17.13;;
21354;SDS011;10835;50.148;19.760;2022-10-22T00:40:50;33.90;;;17.73;;
21354;SDS011;10835;50.148;19.760;2022-10-22T00:43:18;30.30;;;17.90;;
21354;SDS011;10835;50.148;19.760;2022-10-22T00:45:46;30.55;;;17.48;;
21354;SDS011;10835;50.148;19.760;2022-10-22T00:48:16;28.77;;;17.40;;
21354;SDS011;10835;50.148;19.760;2022-10-22T00:50:48;33.47;;;18.90;;
21354;SDS011;10835;50.148;19.760;2022-10-22T00:53:21;29.88;;;18.65;;
21354;SDS011;10835;50.148;19.760;2022-10-22T00:55:53;32.03;;;18.63;;
21354;SDS011;10835;50.148;19.760;2022-10-22T00:58:22;31.63;;;17.35;;
21354;SDS011;10835;50.148;19.760;2022-10-22T01:00:52;33.03;;;17.23;;
21354;SDS011;10835;50.148;19.760;2022-10-22T01:03:23;28.70;;;16.58;;
21354;SDS011;10835;50.148;19.760;2022-10-22T01:05:53;28.95;;;14.90;;
21354;SDS011;10835;50.148;19.760;2022-10-22T01:08:26;29.75;;;16.25;;
21354;SDS011;10835;50.148;19.760;2022-10-22T01:11:11;31.10;;;16.45;;
21354;SDS011;10835;50.148;19.760;2022-10-22T01:13:48;30.40;;;17.75;;
21354;SDS011;10835;50.148;19.760;2022-10-22T01:16:26;28.10;;;16.70;;
21354;SDS011;10835;50.148;19.760;2022-10-22T01:19:03;27.77;;;16.38;;
21354;SDS011;10835;50.148;19.760;2022-10-22T01:21:50;27.65;;;16.23;;
21354;SDS011;10835;50.148;19.760;2022-10-22T01:27:17;25.20;;;16.17;;
21354;SDS011;10835;50.148;19.760;2022-10-22T01:29:56;26.30;;;16.77;;
21354;SDS011;10835;50.148;19.760;2022-10-22T01:32:26;20.05;;;13.60;;
21354;SDS011;10835;50.148;19.760;2022-10-22T01:34:59;25.10;;;15.73;;
21354;SDS011;10835;50.148;19.760;2022-10-22T01:37:29;29.40;;;16.90;;
21354;SDS011;10835;50.148;19.760;2022-10-22T01:39:59;33.40;;;20.40;;
21354;SDS011;10835;50.148;19.760;2022-10-22T01:42:32;28.10;;;16.65;;
21354;SDS011;10835;50.148;19.760;2022-10-22T01:45:01;27.60;;;16.63;;
21354;SDS011;10835;50.148;19.760;2022-10-22T01:47:33;33.38;;;18.77;;
21354;SDS011;10835;50.148;19.760;2022-10-22T01:50:22;25.70;;;15.50;;
21354;SDS011;10835;50.148;19.760;2022-10-22T01:53:04;27.52;;;16.52;;
21354;SDS011;10835;50.148;19.760;2022-10-22T01:55:42;36.85;;;21.33;;
21354;SDS011;10835;50.148;19.760;2022-10-22T01:58:26;28.77;;;17.92;;
21354;SDS011;10835;50.148;19.760;2022-10-22T02:01:04;24.17;;;16.08;;
21354;SDS011;10835;50.148;19.760;2022-10-22T02:03:39;29.48;;;16.75;;
21354;SDS011;10835;50.148;19.760;2022-10-22T02:06:13;23.65;;;14.95;;
21354;SDS011;10835;50.148;19.760;2022-10-22T02:08:45;23.52;;;13.05;;
21354;SDS011;10835;50.148;19.760;2022-10-22T02:11:15;25.00;;;15.32;;
21354;SDS011;10835;50.148;19.760;2022-10-22T02:13:45;35.83;;;17.20;;
21354;SDS011;10835;50.148;19.760;2022-10-22T02:16:26;30.48;;;16.55;;
21354;SDS011;10835;50.148;19.760;2022-10-22T02:18:57;28.23;;;16.02;;
21354;SDS011;10835;50.148;19.760;2022-10-22T02:21:29;28.77;;;16.45;;
21354;SDS011;10835;50.148;19.760;2022-10-22T02:23:57;28.67;;;16.15;;
21354;SDS011;10835;50.148;19.760;2022-10-22T02:26:27;22.45;;;13.55;;
21354;SDS011;10835;50.148;19.760;2022-10-22T02:29:01;23.17;;;14.27;;
21354;SDS011;10835;50.148;19.760;2022-10-22T02:31:36;23.25;;;14.15;;
21354;SDS011;10835;50.148;19.760;2022-10-22T02:34:08;23.73;;;14.00;;
21354;SDS011;10835;50.148;19.760;2022-10-22T02:36:40;27.40;;;14.25;;
21354;SDS011;10835;50.148;19.760;2022-10-22T02:39:14;25.67;;;13.13;;
21354;SDS011;10835;50.148;19.760;2022-10-22T02:41:43;24.92;;;13.30;;
21354;SDS011;10835;50.148;19.760;2022-10-22T02:44:12;21.08;;;12.90;;
21354;SDS011;10835;50.148;19.760;2022-10-22T02:46:41;20.77;;;11.75;;
21354;SDS011;10835;50.148;19.760;2022-10-22T02:49:10;20.73;;;12.45;;
21354;SDS011;10835;50.148;19.760;2022-10-22T02:51:38;19.70;;;11.93;;
21354;SDS011;10835;50.148;19.760;2022-10-22T02:54:06;15.60;;;10.20;;
21354;SDS011;10835;50.148;19.760;2022-10-22T02:56:34;20.95;;;10.13;;
21354;SDS011;10835;50.148;19.760;2022-10-22T02:59:02;14.38;;;8.82;;
21354;SDS011;10835;50.148;19.760;2022-10-22T03:01:30;23.85;;;12.05;;
21354;SDS011;10835;50.148;19.760;2022-10-22T03:04:00;20.55;;;11.25;;
21354;SDS011;10835;50.148;19.760;2022-10-22T03:06:28;21.20;;;9.35;;
21354;SDS011;10835;50.148;19.760;2022-10-22T03:08:56;17.90;;;10.15;;
21354;SDS011;10835;50.148;19.760;2022-10-22T03:11:24;20.15;;;10.90;;
21354;SDS011;10835;50.148;19.760;2022-10-22T03:13:52;21.38;;;11.82;;
21354;SDS011;10835;50.148;19.760;2022-10-22T03:16:20;22.48;;;11.35;;
21354;SDS011;10835;50.148;19.760;2022-10-22T03:18:48;23.92;;;13.27;;
21354;SDS011;10835;50.148;19.760;2022-10-22T03:21:19;22.50;;;12.68;;
21354;SDS011;10835;50.148;19.760;2022-10-22T03:23:52;21.85;;;11.48;;
21354;SDS011;10835;50.148;19.760;2022-10-22T03:26:21;22.65;;;11.35;;
21354;SDS011;10835;50.148;19.760;2022-10-22T03:28:50;20.60;;;11.00;;
21354;SDS011;10835;50.148;19.760;2022-10-22T03:31:18;19.73;;;9.48;;
21354;SDS011;10835;50.148;19.760;2022-10-22T03:33:46;25.38;;;12.88;;
21354;SDS011;10835;50.148;19.760;2022-10-22T03:36:14;21.60;;;11.65;;
21354;SDS011;10835;50.148;19.760;2022-10-22T03:38:43;16.55;;;9.27;;
21354;SDS011;10835;50.148;19.760;2022-10-22T03:41:11;24.95;;;14.10;;
21354;SDS011;10835;50.148;19.760;2022-10-22T03:43:39;22.25;;;11.73;;
21354;SDS011;10835;50.148;19.760;2022-10-22T03:46:07;20.38;;;10.80;;
21354;SDS011;10835;50.148;19.760;2022-10-22T03:48:35;22.20;;;12.63;;
21354;SDS011;10835;50.148;19.760;2022-10-22T03:51:03;19.40;;;10.85;;
21354;SDS011;10835;50.148;19.760;2022-10-22T03:53:31;18.77;;;9.55;;
21354;SDS011;10835;50.148;19.760;2022-10-22T03:56:01;20.65;;;11.27;;
21354;SDS011;10835;50.148;19.760;2022-10-22T03:58:29;19.02;;;10.45;;
21354;SDS011;10835;50.148;19.760;2022-10-22T04:01:02;17.35;;;8.90;;
21354;SDS011;10835;50.148;19.760;2022-10-22T04:03:31;19.25;;;9.55;;
21354;SDS011;10835;50.148;19.760;2022-10-22T04:06:00;18.58;;;10.60;;
21354;SDS011;10835;50.148;19.760;2022-10-22T04:08:28;19.60;;;10.70;;
21354;SDS011;10835;50.148;19.760;2022-10-22T04:10:57;22.27;;;12.45;;
21354;SDS011;10835;50.148;19.760;2022-10-22T04:13:26;25.55;;;12.98;;
21354;SDS011;10835;50.148;19.760;2022-10-22T04:15:54;19.58;;;10.23;;
21354;SDS011;10835;50.148;19.760;2022-10-22T04:18:22;28.67;;;12.75;;
21354;SDS011;10835;50.148;19.760;2022-10-22T04:20:50;23.13;;;11.77;;
21354;SDS011;10835;50.148;19.760;2022-10-22T04:23:18;19.35;;;9.30;;
21354;SDS011;10835;50.148;19.760;2022-10-22T04:25:46;15.73;;;8.65;;
21354;SDS011;10835;50.148;19.760;2022-10-22T04:28:14;12.25;;;6.80;;
21354;SDS011;10835;50.148;19.760;2022-10-22T04:30:43;12.65;;;7.63;;
21354;SDS011;10835;50.148;19.760;2022-10-22T04:33:11;13.43;;;8.25;;
21354;SDS011;10835;50.148;19.760;2022-10-22T04:35:39;17.98;;;9.15;;
21354;SDS011;10835;50.148;19.760;2022-10-22T04:38:07;28.38;;;12.63;;
21354;SDS011;10835;50.148;19.760;2022-10-22T04:40:35;14.95;;;8.98;;
21354;SDS011;10835;50.148;19.760;2022-10-22T04:43:03;14.45;;;8.20;;
21354;SDS011;10835;50.148;19.760;2022-10-22T04:45:31;13.57;;;7.05;;
21354;SDS011;10835;50.148;19.760;2022-10-22T04:48:01;13.68;;;7.80;;
21354;SDS011;10835;50.148;19.760;2022-10-22T04:50:29;12.55;;;8.45;;
21354;SDS011;10835;50.148;19.760;2022-10-22T04:52:57;19.10;;;11.10;;
21354;SDS011;10835;50.148;19.760;2022-10-22T04:55:25;24.35;;;13.88;;
21354;SDS011;10835;50.148;19.760;2022-10-22T04:57:53;22.55;;;12.82;;
21354;SDS011;10835;50.148;19.760;2022-10-22T05:00:21;20.88;;;10.50;;
21354;SDS011;10835;50.148;19.760;2022-10-22T05:02:49;18.98;;;11.30;;
21354;SDS011;10835;50.148;19.760;2022-10-22T05:05:18;19.25;;;11.07;;
21354;SDS011;10835;50.148;19.760;2022-10-22T05:07:46;25.75;;;12.73;;
21354;SDS011;10835;50.148;19.760;2022-10-22T05:10:16;31.45;;;15.18;;
21354;SDS011;10835;50.148;19.760;2022-10-22T05:12:44;29.70;;;14.90;;
21354;SDS011;10835;50.148;19.760;2022-10-22T05:15:12;40.22;;;19.05;;
21354;SDS011;10835;50.148;19.760;2022-10-22T05:17:40;32.47;;;17.58;;
21354;SDS011;10835;50.148;19.760;2022-10-22T05:20:09;33.35;;;17.10;;
21354;SDS011;10835;50.148;19.760;2022-10-22T05:22:39;33.03;;;17.38;;
21354;SDS011;10835;50.148;19.760;2022-10-22T05:25:07;24.80;;;13.15;;
21354;SDS011;10835;50.148;19.760;2022-10-22T05:27:35;24.70;;;13.68;;
21354;SDS011;10835;50.148;19.760;2022-10-22T05:30:03;25.70;;;12.50;;
21354;SDS011;10835;50.148;19.760;2022-10-22T05:32:33;21.15;;;11.52;;
21354;SDS011;10835;50.148;19.760;2022-10-22T05:35:01;20.50;;;12.05;;
21354;SDS011;10835;50.148;19.760;2022-10-22T05:37:29;18.67;;;11.95;;
21354;SDS011;10835;50.148;19.760;2022-10-22T05:39:58;24.17;;;11.65;;
21354;SDS011;10835;50.148;19.760;2022-10-22T05:42:46;20.48;;;10.13;;
21354;SDS011;10835;50.148;19.760;2022-10-22T05:45:14;21.45;;;10.27;;
21354;SDS011;10835;50.148;19.760;2022-10-22T05:47:42;18.70;;;10.30;;
21354;SDS011;10835;50.148;19.760;2022-10-22T05:50:10;14.57;;;10.27;;
21354;SDS011;10835;50.148;19.760;2022-10-22T05:52:39;23.27;;;11.35;;
21354;SDS011;10835;50.148;19.760;2022-10-22T05:55:09;22.45;;;12.02;;
21354;SDS011;10835;50.148;19.760;2022-10-22T05:57:38;19.45;;;10.63;;
21354;SDS011;10835;50.148;19.760;2022-10-22T06:00:07;13.95;;;7.70;;
21354;SDS011;10835;50.148;19.760;2022-10-22T06:02:41;11.57;;;6.40;;
21354;SDS011;10835;50.148;19.760;2022-10-22T06:05:09;10.27;;;5.93;;
21354;SDS011;10835;50.148;19.760;2022-10-22T06:07:37;12.23;;;6.82;;
21354;SDS011;10835;50.148;19.760;2022-10-22T06:10:05;9.60;;;5.55;;
21354;SDS011;10835;50.148;19.760;2022-10-22T06:12:36;13.98;;;6.80;;
21354;SDS011;10835;50.148;19.760;2022-10-22T06:15:05;23.00;;;11.18;;
21354;SDS011;10835;50.148;19.760;2022-10-22T06:17:34;29.35;;;12.80;;
21354;SDS011;10835;50.148;19.760;2022-10-22T06:20:02;25.13;;;12.85;;
21354;SDS011;10835;50.148;19.760;2022-10-22T06:22:35;18.70;;;9.50;;
21354;SDS011;10835;50.148;19.760;2022-10-22T06:25:04;12.02;;;7.80;;
21354;SDS011;10835;50.148;19.760;2022-10-22T06:27:33;14.25;;;8.38;;
21354;SDS011;10835;50.148;19.760;2022-10-22T06:30:03;11.93;;;8.27;;
21354;SDS011;10835;50.148;19.760;2022-10-22T06:32:32;16.25;;;8.85;;
21354;SDS011;10835;50.148;19.760;2022-10-22T06:35:00;19.77;;;10.02;;
21354;SDS011;10835;50.148;19.760;2022-10-22T06:37:28;17.33;;;10.55;;
21354;SDS011;10835;50.148;19.760;2022-10-22T06:39:56;15.55;;;9.88;;
21354;SDS011;10835;50.148;19.760;2022-10-22T06:42:24;14.52;;;9.73;;
21354;SDS011;10835;50.148;19.760;2022-10-22T06:44:52;17.88;;;11.50;;
21354;SDS011;10835;50.148;19.760;2022-10-22T06:47:21;13.73;;;9.13;;
21354;SDS011;10835;50.148;19.760;2022-10-22T06:49:49;15.75;;;10.13;;
21354;SDS011;10835;50.148;19.760;2022-10-22T06:52:18;12.73;;;9.07;;
21354;SDS011;10835;50.148;19.760;2022-10-22T06:54:46;16.55;;;9.93;;
21354;SDS011;10835;50.148;19.760;2022-10-22T06:57:14;14.00;;;8.68;;
21354;SDS011;10835;50.148;19.760;2022-10-22T06:59:42;17.58;;;9.85;;
21354;SDS011;10835;50.148;19.760;2022-10-22T07:02:10;23.05;;;10.13;;
21354;SDS011;10835;50.148;19.760;2022-10-22T07:04:42;17.52;;;10.60;;
21354;SDS011;10835;50.148;19.760;2022-10-22T07:07:10;22.92;;;13.18;;
21354;SDS011;10835;50.148;19.760;2022-10-22T07:09:40;18.83;;;11.55;;
21354;SDS011;10835;50.148;19.760;2022-10-22T07:12:10;17.98;;;11.48;;
21354;SDS011;10835;50.148;19.760;2022-10-22T07:14:39;21.10;;;11.43;;
21354;SDS011;10835;50.148;19.760;2022-10-22T07:17:07;24.10;;;13.20;;
21354;SDS011;10835;50.148;19.760;2022-10-22T07:19:35;17.35;;;9.43;;
21354;SDS011;10835;50.148;19.760;2022-10-22T07:22:07;23.45;;;12.45;;
21354;SDS011;10835;50.148;19.760;2022-10-22T07:24:35;17.63;;;11.18;;
21354;SDS011;10835;50.148;19.760;2022-10-22T07:27:05;23.50;;;13.55;;
21354;SDS011;10835;50.148;19.760;2022-10-22T07:29:37;23.95;;;11.68;;
21354;SDS011;10835;50.148;19.760;2022-10-22T07:32:05;20.52;;;12.27;;
21354;SDS011;10835;50.148;19.760;2022-10-22T07:34:33;21.35;;;11.88;;
21354;SDS011;10835;50.148;19.760;2022-10-22T07:37:04;20.02;;;11.95;;
21354;SDS011;10835;50.148;19.760;2022-10-22T07:39:34;17.55;;;10.65;;
21354;SDS011;10835;50.148;19.760;2022-10-22T07:42:02;21.45;;;11.75;;
21354;SDS011;10835;50.148;19.760;2022-10-22T07:44:30;22.92;;;11.48;;
21354;SDS011;10835;50.148;19.760;2022-10-22T07:46:58;22.85;;;12.13;;
21354;SDS011;10835;50.148;19.760;2022-10-22T07:49:26;18.73;;;11.23;;
21354;SDS011;10835;50.148;19.760;2022-10-22T07:51:54;19.45;;;11.70;;
21354;SDS011;10835;50.148;19.760;2022-10-22T07:54:24;18.42;;;11.38;;
21354;SDS011;10835;50.148;19.760;2022-10-22T07:56:52;25.50;;;12.07;;
21354;SDS011;10835;50.148;19.760;2022-10-22T07:59:20;15.30;;;10.75;;
21354;SDS011;10835;50.148;19.760;2022-10-22T08:01:48;20.45;;;12.02;;
21354;SDS011;10835;50.148;19.760;2022-10-22T08:04:16;16.92;;;11.48;;
21354;SDS011;10835;50.148;19.760;2022-10-22T08:06:44;21.98;;;12.57;;
21354;SDS011;10835;50.148;19.760;2022-10-22T08:09:13;23.30;;;13.63;;
21354;SDS011;10835;50.148;19.760;2022-10-22T08:11:43;16.08;;;10.35;;
21354;SDS011;10835;50.148;19.760;2022-10-22T08:14:11;16.98;;;10.73;;
21354;SDS011;10835;50.148;19.760;2022-10-22T08:16:39;22.08;;;11.52;;
21354;SDS011;10835;50.148;19.760;2022-10-22T08:19:21;19.63;;;11.32;;
21354;SDS011;10835;50.148;19.760;2022-10-22T08:21:50;17.38;;;12.35;;
21354;SDS011;10835;50.148;19.760;2022-10-22T08:24:18;16.88;;;10.63;;
21354;SDS011;10835;50.148;19.760;2022-10-22T08:26:46;19.63;;;13.18;;
21354;SDS011;10835;50.148;19.760;2022-10-22T08:29:14;19.92;;;12.23;;
21354;SDS011;10835;50.148;19.760;2022-10-22T08:31:41;22.30;;;12.82;;
21354;SDS011;10835;50.148;19.760;2022-10-22T08:34:09;22.65;;;12.75;;
21354;SDS011;10835;50.148;19.760;2022-10-22T08:36:41;19.92;;;12.65;;
21354;SDS011;10835;50.148;19.760;2022-10-22T08:39:09;17.92;;;11.38;;
21354;SDS011;10835;50.148;19.760;2022-10-22T08:41:39;18.40;;;11.20;;
21354;SDS011;10835;50.148;19.760;2022-10-22T08:44:19;18.80;;;11.55;;
21354;SDS011;10835;50.148;19.760;2022-10-22T08:47:08;19.17;;;11.52;;
21354;SDS011;10835;50.148;19.760;2022-10-22T08:49:47;19.60;;;11.52;;
21354;SDS011;10835;50.148;19.760;2022-10-22T08:52:17;20.23;;;11.85;;
21354;SDS011;10835;50.148;19.760;2022-10-22T08:54:49;18.60;;;11.20;;
21354;SDS011;10835;50.148;19.760;2022-10-22T08:57:35;15.38;;;9.38;;
21354;SDS011;10835;50.148;19.760;2022-10-22T09:00:10;19.20;;;11.77;;
21354;SDS011;10835;50.148;19.760;2022-10-22T09:02:44;17.90;;;10.10;;
21354;SDS011;10835;50.148;19.760;2022-10-22T09:05:27;19.23;;;11.07;;
21354;SDS011;10835;50.148;19.760;2022-10-22T09:08:02;20.70;;;10.73;;
21354;SDS011;10835;50.148;19.760;2022-10-22T09:10:33;15.95;;;10.07;;
21354;SDS011;10835;50.148;19.760;2022-10-22T09:13:04;18.33;;;9.80;;
21354;SDS011;10835;50.148;19.760;2022-10-22T09:15:32;17.65;;;9.82;;
21354;SDS011;10835;50.148;19.760;2022-10-22T09:18:05;20.25;;;11.68;;
21354;SDS011;10835;50.148;19.760;2022-10-22T09:20:49;21.73;;;11.85;;
21354;SDS011;10835;50.148;19.760;2022-10-22T09:23:26;15.30;;;10.10;;
21354;SDS011;10835;50.148;19.760;2022-10-22T09:25:59;17.58;;;9.07;;
21354;SDS011;10835;50.148;19.760;2022-10-22T09:28:27;12.93;;;7.82;;
21354;SDS011;10835;50.148;19.760;2022-10-22T09:30:55;14.93;;;7.72;;
21354;SDS011;10835;50.148;19.760;2022-10-22T09:33:28;17.33;;;9.82;;
21354;SDS011;10835;50.148;19.760;2022-10-22T09:35:59;16.63;;;10.27;;
21354;SDS011;10835;50.148;19.760;2022-10-22T09:38:31;17.92;;;10.73;;
21354;SDS011;10835;50.148;19.760;2022-10-22T09:41:00;14.88;;;9.73;;
21354;SDS011;10835;50.148;19.760;2022-10-22T09:43:29;20.33;;;10.88;;
21354;SDS011;10835;50.148;19.760;2022-10-22T09:45:59;17.55;;;10.07;;
21354;SDS011;10835;50.148;19.760;2022-10-22T09:48:29;16.33;;;10.07;;
21354;SDS011;10835;50.148;19.760;2022-10-22T09:51:02;14.77;;;8.52;;
21354;SDS011;10835;50.148;19.760;2022-10-22T09:53:36;18.70;;;10.10;;
21354;SDS011;10835;50.148;19.760;2022-10-22T09:56:07;15.10;;;8.13;;
21354;SDS011;10835;50.148;19.760;2022-10-22T09:58:40;15.35;;;9.07;;
21354;SDS011;10835;50.148;19.760;2022-10-22T10:01:15;16.05;;;7.82;;
21354;SDS011;10835;50.148;19.760;2022-10-22T10:03:44;19.15;;;9.15;;
21354;SDS011;10835;50.148;19.760;2022-10-22T10:06:17;15.13;;;8.43;;
21354;SDS011;10835;50.148;19.760;2022-10-22T10:08:47;16.27;;;8.95;;
21354;SDS011;10835;50.148;19.760;2022-10-22T10:11:17;14.45;;;8.35;;
21354;SDS011;10835;50.148;19.760;2022-10-22T10:14:00;15.73;;;8.95;;
21354;SDS011;10835;50.148;19.760;2022-10-22T10:16:42;11.80;;;8.18;;
21354;SDS011;10835;50.148;19.760;2022-10-22T10:19:18;17.15;;;8.35;;
21354;SDS011;10835;50.148;19.760;2022-10-22T10:21:59;11.07;;;6.97;;
21354;SDS011;10835;50.148;19.760;2022-10-22T10:24:36;19.75;;;10.93;;
21354;SDS011;10835;50.148;19.760;2022-10-22T10:27:19;15.77;;;9.57;;
21354;SDS011;10835;50.148;19.760;2022-10-22T10:29:53;17.25;;;9.55;;
21354;SDS011;10835;50.148;19.760;2022-10-22T10:32:30;15.13;;;8.82;;
21354;SDS011;10835;50.148;19.760;2022-10-22T10:35:14;14.73;;;8.45;;
21354;SDS011;10835;50.148;19.760;2022-10-22T10:37:50;13.15;;;8.15;;
21354;SDS011;10835;50.148;19.760;2022-10-22T10:40:32;12.95;;;7.75;;
21354;SDS011;10835;50.148;19.760;2022-10-22T10:43:08;14.73;;;8.70;;
21354;SDS011;10835;50.148;19.760;2022-10-22T10:45:41;17.33;;;9.25;;
21354;SDS011;10835;50.148;19.760;2022-10-22T10:48:24;16.15;;;8.63;;
21354;SDS011;10835;50.148;19.760;2022-10-22T10:51:14;13.27;;;7.35;;
21354;SDS011;10835;50.148;19.760;2022-10-22T10:54:03;15.63;;;7.85;;
21354;SDS011;10835;50.148;19.760;2022-10-22T10:56:45;11.50;;;7.53;;
21354;SDS011;10835;50.148;19.760;2022-10-22T10:59:18;12.40;;;7.57;;
21354;SDS011;10835;50.148;19.760;2022-10-22T11:01:58;14.70;;;7.45;;
21354;SDS011;10835;50.148;19.760;2022-10-22T11:04:43;16.73;;;8.20;;
21354;SDS011;10835;50.148;19.760;2022-10-22T11:07:23;15.23;;;9.27;;
21354;SDS011;10835;50.148;19.760;2022-10-22T11:10:02;15.48;;;8.23;;
21354;SDS011;10835;50.148;19.760;2022-10-22T11:12:39;15.88;;;9.57;;
21354;SDS011;10835;50.148;19.760;2022-10-22T11:15:13;20.77;;;9.25;;
21354;SDS011;10835;50.148;19.760;2022-10-22T11:17:52;14.75;;;8.40;;
21354;SDS011;10835;50.148;19.760;2022-10-22T11:20:23;17.00;;;9.05;;
21354;SDS011;10835;50.148;19.760;2022-10-22T11:22:58;22.10;;;10.10;;
21354;SDS011;10835;50.148;19.760;2022-10-22T11:25:48;16.25;;;9.70;;
21354;SDS011;10835;50.148;19.760;2022-10-22T11:28:19;17.08;;;10.45;;
21354;SDS011;10835;50.148;19.760;2022-10-22T11:30:52;17.02;;;8.43;;
21354;SDS011;10835;50.148;19.760;2022-10-22T11:33:27;16.58;;;8.90;;
21354;SDS011;10835;50.148;19.760;2022-10-22T11:36:03;18.52;;;10.18;;
21354;SDS011;10835;50.148;19.760;2022-10-22T11:38:32;15.55;;;10.30;;
21354;SDS011;10835;50.148;19.760;2022-10-22T11:41:04;15.27;;;10.32;;
21354;SDS011;10835;50.148;19.760;2022-10-22T11:46:32;17.92;;;10.27;;
21354;SDS011;10835;50.148;19.760;2022-10-22T11:49:14;15.90;;;9.30;;
21354;SDS011;10835;50.148;19.760;2022-10-22T11:51:45;17.35;;;10.43;;
21354;SDS011;10835;50.148;19.760;2022-10-22T11:54:25;14.85;;;9.65;;
21354;SDS011;10835;50.148;19.760;2022-10-22T11:57:18;15.02;;;9.63;;
21354;SDS011;10835;50.148;19.760;2022-10-22T11:59:48;20.77;;;9.55;;
21354;SDS011;10835;50.148;19.760;2022-10-22T12:02:29;18.73;;;10.43;;
21354;SDS011;10835;50.148;19.760;2022-10-22T12:08:22;17.30;;;10.23;;
21354;SDS011;10835;50.148;19.760;2022-10-22T12:10:57;16.75;;;10.50;;
21354;SDS011;10835;50.148;19.760;2022-10-22T12:13:31;21.52;;;11.00;;
21354;SDS011;10835;50.148;19.760;2022-10-22T12:16:01;17.15;;;10.38;;
21354;SDS011;10835;50.148;19.760;2022-10-22T12:18:38;18.95;;;11.10;;
21354;SDS011;10835;50.148;19.760;2022-10-22T12:21:09;17.17;;;10.75;;
21354;SDS011;10835;50.148;19.760;2022-10-22T12:23:39;15.60;;;10.30;;
21354;SDS011;10835;50.148;19.760;2022-10-22T12:26:20;19.52;;;11.77;;
21354;SDS011;10835;50.148;19.760;2022-10-22T12:28:50;21.10;;;10.80;;
21354;SDS011;10835;50.148;19.760;2022-10-22T12:31:18;15.20;;;9.15;;
21354;SDS011;10835;50.148;19.760;2022-10-22T12:33:47;17.60;;;9.55;;
21354;SDS011;10835;50.148;19.760;2022-10-22T12:36:21;17.50;;;10.50;;
21354;SDS011;10835;50.148;19.760;2022-10-22T12:38:51;13.90;;;9.27;;
21354;SDS011;10835;50.148;19.760;2022-10-22T12:41:19;20.08;;;10.30;;
21354;SDS011;10835;50.148;19.760;2022-10-22T12:43:47;14.80;;;9.13;;
21354;SDS011;10835;50.148;19.760;2022-10-22T12:46:15;16.35;;;10.07;;
21354;SDS011;10835;50.148;19.760;2022-10-22T12:48:45;17.05;;;11.07;;
21354;SDS011;10835;50.148;19.760;2022-10-22T12:51:16;16.13;;;9.77;;
21354;SDS011;10835;50.148;19.760;2022-10-22T12:53:47;20.83;;;12.65;;
21354;SDS011;10835;50.148;19.760;2022-10-22T12:56:20;18.55;;;11.35;;
21354;SDS011;10835;50.148;19.760;2022-10-22T12:58:51;19.83;;;10.77;;
21354;SDS011;10835;50.148;19.760;2022-10-22T13:01:23;20.60;;;11.55;;
21354;SDS011;10835;50.148;19.760;2022-10-22T13:04:04;17.90;;;11.40;;
21354;SDS011;10835;50.148;19.760;2022-10-22T13:06:45;24.45;;;13.25;;
21354;SDS011;10835;50.148;19.760;2022-10-22T13:09:15;21.45;;;12.13;;
21354;SDS011;10835;50.148;19.760;2022-10-22T13:11:53;13.73;;;9.60;;
21354;SDS011;10835;50.148;19.760;2022-10-22T13:14:26;32.83;;;16.63;;
21354;SDS011;10835;50.148;19.760;2022-10-22T13:17:01;17.83;;;11.70;;
21354;SDS011;10835;50.148;19.760;2022-10-22T13:19:39;22.70;;;13.45;;
21354;SDS011;10835;50.148;19.760;2022-10-22T13:22:23;27.55;;;16.33;;
21354;SDS011;10835;50.148;19.760;2022-10-22T13:24:57;26.95;;;16.60;;
21354;SDS011;10835;50.148;19.760;2022-10-22T13:27:26;26.98;;;16.63;;
21354;SDS011;10835;50.148;19.760;2022-10-22T13:29:55;31.05;;;17.80;;
21354;SDS011;10835;50.148;19.760;2022-10-22T13:32:28;28.98;;;17.10;;
21354;SDS011;10835;50.148;19.760;2022-10-22T13:34:59;29.02;;;15.68;;
21354;SDS011;10835;50.148;19.760;2022-10-22T13:37:29;27.70;;;17.75;;
21354;SDS011;10835;50.148;19.760;2022-10-22T13:40:00;29.52;;;15.63;;
21354;SDS011;10835;50.148;19.760;2022-10-22T13:42:36;25.98;;;17.42;;
21354;SDS011;10835;50.148;19.760;2022-10-22T13:45:06;26.10;;;16.05;;
21354;SDS011;10835;50.148;19.760;2022-10-22T13:47:34;25.95;;;15.57;;
21354;SDS011;10835;50.148;19.760;2022-10-22T13:50:06;27.52;;;16.50;;
21354;SDS011;10835;50.148;19.760;2022-10-22T13:52:41;24.15;;;14.07;;
21354;SDS011;10835;50.148;19.760;2022-10-22T13:55:15;26.67;;;15.40;;
21354;SDS011;10835;50.148;19.760;2022-10-22T13:57:45;27.88;;;17.23;;
21354;SDS011;10835;50.148;19.760;2022-10-22T14:00:15;27.25;;;16.17;;
21354;SDS011;10835;50.148;19.760;2022-10-22T14:02:45;25.85;;;15.50;;
21354;SDS011;10835;50.148;19.760;2022-10-22T14:05:16;29.38;;;15.80;;
21354;SDS011;10835;50.148;19.760;2022-10-22T14:07:45;27.10;;;16.20;;
21354;SDS011;10835;50.148;19.760;2022-10-22T14:10:15;30.90;;;16.70;;
21354;SDS011;10835;50.148;19.760;2022-10-22T14:12:48;25.50;;;16.13;;
21354;SDS011;10835;50.148;19.760;2022-10-22T14:15:19;29.33;;;16.02;;
21354;SDS011;10835;50.148;19.760;2022-10-22T14:17:51;30.77;;;16.88;;
21354;SDS011;10835;50.148;19.760;2022-10-22T14:20:22;27.17;;;16.70;;
21354;SDS011;10835;50.148;19.760;2022-10-22T14:22:53;27.58;;;16.70;;
21354;SDS011;10835;50.148;19.760;2022-10-22T14:25:22;27.33;;;16.67;;
21354;SDS011;10835;50.148;19.760;2022-10-22T14:27:51;27.67;;;17.30;;
21354;SDS011;10835;50.148;19.760;2022-10-22T14:30:20;27.17;;;15.05;;
21354;SDS011;10835;50.148;19.760;2022-10-22T14:32:50;25.38;;;16.58;;
21354;SDS011;10835;50.148;19.760;2022-10-22T14:35:20;28.75;;;16.35;;
21354;SDS011;10835;50.148;19.760;2022-10-22T14:37:50;26.33;;;16.17;;
21354;SDS011;10835;50.148;19.760;2022-10-22T14:40:19;24.15;;;16.08;;
21354;SDS011;10835;50.148;19.760;2022-10-22T14:42:47;23.77;;;14.90;;
21354;SDS011;10835;50.148;19.760;2022-10-22T14:45:16;27.27;;;15.38;;